Terminal Aerodrome Forecast
Issued by NWS

Home | Current Version | Previous Version | Text Only | Print | Product List | Glossary On
Versions: 1 2 3 4 5 6 7 8 9 10 11 12
000
FTUS46 KMTR 232340
TAFSJC
TAF
KSJC 232340Z 2400/2424 07006KT P6SM VCSH FEW011 SCT030 BKN045
     FM240200 28008KT P6SM VCSH BKN040
     FM241000 13008KT P6SM SCT040
     FM242300 30008KT P6SM SCT040=

USA.gov is the U.S. government's official web portal to all federal, state and local government web resources and services.